createdAt,value
2019-01-27T00:02:30.696Z,3.50
2019-01-27T00:17:33.265Z,3.50
2019-01-27T00:23:22.354Z,3.50
2019-01-27T00:29:40.835Z,3.50
2019-01-27T00:41:41.798Z,3.60
2019-01-27T00:50:28.689Z,3.60
2019-01-27T00:53:16.914Z,3.60
2019-01-27T00:56:07.449Z,3.60
2019-01-27T01:10:44.873Z,3.60
2019-01-27T01:19:31.591Z,3.60
2019-01-27T01:28:03.589Z,3.60
2019-01-27T01:33:45.452Z,3.50
2019-01-27T01:36:28.638Z,3.50
2019-01-27T01:39:54.319Z,3.60
2019-01-27T01:42:44.429Z,3.60
2019-01-27T01:45:34.810Z,3.60
2019-01-27T01:48:24.846Z,3.70
2019-01-27T01:51:51.039Z,3.60
2019-01-27T01:54:40.755Z,3.60
2019-01-27T01:57:30.576Z,3.60
2019-01-27T02:03:56.239Z,3.60
2019-01-27T02:06:45.916Z,3.70
2019-01-27T02:09:35.507Z,3.80
2019-01-27T02:12:25.089Z,3.90
2019-01-27T02:15:53.235Z,3.90
2019-01-27T02:18:42.827Z,3.90
2019-01-27T02:21:32.476Z,3.90
2019-01-27T02:24:22.073Z,3.90
2019-01-27T02:27:11.709Z,3.80
2019-01-27T02:30:01.346Z,3.90
2019-01-27T02:32:50.947Z,3.90
2019-01-27T02:35:40.573Z,3.90
2019-01-27T02:38:30.269Z,3.90
2019-01-27T02:41:19.889Z,3.90
2019-01-27T02:44:09.619Z,3.90
2019-01-27T02:46:59.293Z,4.00
2019-01-27T02:49:48.853Z,4.00
2019-01-27T02:52:38.416Z,4.10
2019-01-27T02:55:28.010Z,4.10
2019-01-27T02:58:17.996Z,4.10
2019-01-27T03:01:07.575Z,4.10
2019-01-27T03:03:57.444Z,4.10
2019-01-27T03:10:37.119Z,4.10
2019-01-27T03:13:26.700Z,4.10
2019-01-27T03:16:16.321Z,4.10
2019-01-27T03:19:05.909Z,4.10
2019-01-27T03:21:55.498Z,4.10
2019-01-27T03:24:45.081Z,4.10
2019-01-27T03:28:28.982Z,4.10
2019-01-27T03:31:11.522Z,4.10
2019-01-27T03:34:01.117Z,4.10
2019-01-27T03:36:50.985Z,4.20
2019-01-27T03:39:41.256Z,4.20
2019-01-27T03:45:44.216Z,4.30
2019-01-27T03:48:34.626Z,4.30
2019-01-27T03:51:24.216Z,4.30
2019-01-27T03:54:13.824Z,4.30
2019-01-27T03:57:03.408Z,4.30
2019-01-27T03:59:52.993Z,4.20
2019-01-27T04:02:42.683Z,4.20
2019-01-27T04:05:32.355Z,4.20
2019-01-27T04:08:21.959Z,4.20
2019-01-27T04:11:11.546Z,4.20
2019-01-27T04:14:01.140Z,4.30
2019-01-27T04:16:50.734Z,4.30
2019-01-27T04:19:40.424Z,4.20
2019-01-27T04:22:30.005Z,4.20
2019-01-27T04:25:56.181Z,4.30
2019-01-27T04:28:45.750Z,4.20
2019-01-27T04:31:26.422Z,4.30
2019-01-27T04:34:16.011Z,4.30
2019-01-27T04:37:05.577Z,4.30
2019-01-27T04:42:47.586Z,4.30
2019-01-27T04:48:48.209Z,4.30
2019-01-27T04:51:37.786Z,4.30
2019-01-27T04:54:27.358Z,4.30
2019-01-27T04:57:17.004Z,4.30
2019-01-27T05:00:47.487Z,4.40
2019-01-27T05:03:55.898Z,4.40
2019-01-27T05:06:45.473Z,4.40
2019-01-27T05:09:35.074Z,4.50
2019-01-27T05:12:24.924Z,4.50
2019-01-27T05:15:14.955Z,4.50
2019-01-27T05:21:19.541Z,4.40
2019-01-27T05:24:09.110Z,4.40
2019-01-27T05:26:58.676Z,4.40
2019-01-27T05:30:07.246Z,4.40
2019-01-27T05:32:56.823Z,4.40
2019-01-27T05:35:46.500Z,4.30
2019-01-27T05:38:36.075Z,4.30
2019-01-27T05:41:25.656Z,4.20
2019-01-27T05:44:15.642Z,4.20
2019-01-27T05:47:05.197Z,4.10
2019-01-27T05:49:53.515Z,4.10
2019-01-27T05:52:43.074Z,4.00
2019-01-27T05:55:32.983Z,4.00
2019-01-27T05:58:22.550Z,4.00
2019-01-27T06:01:12.130Z,4.10
2019-01-27T06:04:01.719Z,4.20
2019-01-27T06:06:51.314Z,4.10
2019-01-27T06:09:40.904Z,4.20
2019-01-27T06:12:30.485Z,4.20
2019-01-27T06:15:40.422Z,4.20
2019-01-27T06:18:29.995Z,4.30
2019-01-27T06:21:19.580Z,4.20
2019-01-27T06:24:09.152Z,4.20
2019-01-27T06:26:58.737Z,4.20
2019-01-27T06:29:48.363Z,4.20
2019-01-27T06:38:43.141Z,4.20
2019-01-27T06:41:32.769Z,4.20
2019-01-27T06:44:22.362Z,4.20
2019-01-27T06:47:11.949Z,4.20
2019-01-27T06:50:01.523Z,4.20
2019-01-27T06:52:51.096Z,4.20
2019-01-27T06:55:41.306Z,4.30
2019-01-27T06:58:49.779Z,4.30
2019-01-27T07:01:44.278Z,4.30
2019-01-27T07:04:53.041Z,4.30
2019-01-27T07:08:01.786Z,4.30
2019-01-27T07:11:10.263Z,4.30
2019-01-27T07:14:18.804Z,4.30
2019-01-27T07:17:27.268Z,4.30
2019-01-27T07:20:35.683Z,4.40
2019-01-27T07:23:44.097Z,4.30
2019-01-27T07:26:53.080Z,4.30
2019-01-27T07:29:55.789Z,4.30
2019-01-27T07:32:57.230Z,4.30
2019-01-27T07:36:05.763Z,4.30
2019-01-27T07:39:14.349Z,4.30
2019-01-27T07:42:23.522Z,4.30
2019-01-27T07:45:53.267Z,4.30
2019-01-27T07:48:52.154Z,4.40
2019-01-27T07:52:00.633Z,4.40
2019-01-27T07:54:57.308Z,4.40
2019-01-27T07:58:06.021Z,4.40
2019-01-27T08:04:31.046Z,4.50
2019-01-27T08:10:33.269Z,4.60
2019-01-27T08:13:41.747Z,4.60
2019-01-27T08:16:50.193Z,4.70
2019-01-27T08:19:58.708Z,4.70
2019-01-27T08:23:07.142Z,4.80
2019-01-27T08:26:15.586Z,4.90
2019-01-27T08:29:24.140Z,5.00
2019-01-27T08:32:25.567Z,5.00
2019-01-27T08:35:34.312Z,5.00
2019-01-27T08:42:12.344Z,5.10
2019-01-27T08:45:20.794Z,5.10
2019-01-27T08:48:10.376Z,5.10
2019-01-27T08:51:00.012Z,5.10
2019-01-27T08:53:50.144Z,5.10
2019-01-27T08:56:39.814Z,5.20
2019-01-27T09:02:38.393Z,5.10
2019-01-27T09:05:46.857Z,5.00
2019-01-27T09:08:55.303Z,5.10
2019-01-27T09:12:03.754Z,5.00
2019-01-27T09:15:00.896Z,5.00
2019-01-27T09:18:09.354Z,5.10
2019-01-27T09:21:17.819Z,5.10
2019-01-27T09:27:39.130Z,5.10
2019-01-27T09:33:48.207Z,5.20
2019-01-27T09:36:56.641Z,5.20
2019-01-27T09:40:05.107Z,5.20
2019-01-27T09:43:03.972Z,5.30
2019-01-27T09:46:05.540Z,5.30
2019-01-27T09:49:13.269Z,5.30
2019-01-27T09:52:17.051Z,5.30
2019-01-27T09:55:28.717Z,5.40
2019-01-27T09:58:37.165Z,5.40
2019-01-27T10:07:48.894Z,5.60
2019-01-27T10:10:57.364Z,5.70
2019-01-27T10:14:05.786Z,5.80
2019-01-27T10:17:14.379Z,5.80
2019-01-27T10:20:23.654Z,5.90
2019-01-27T10:23:32.122Z,6.00
2019-01-27T10:26:40.950Z,6.20
2019-01-27T10:29:49.379Z,6.30
2019-01-27T10:32:50.306Z,6.40
2019-01-27T10:35:59.620Z,6.60
2019-01-27T10:38:56.856Z,6.90
2019-01-27T10:42:07.816Z,6.90
2019-01-27T10:45:35.600Z,6.80
2019-01-27T10:48:44.221Z,6.80
2019-01-27T10:51:52.890Z,6.80
2019-01-27T10:55:04.392Z,6.80
2019-01-27T10:58:16.115Z,6.90
2019-01-27T11:01:26.421Z,6.80
2019-01-27T11:04:35.511Z,6.80
2019-01-27T11:07:44.725Z,6.80
2019-01-27T11:17:09.937Z,6.70
2019-01-27T11:20:12.066Z,6.70
2019-01-27T11:26:19.077Z,6.80
2019-01-27T11:29:27.680Z,6.90
2019-01-27T11:32:28.653Z,6.80
2019-01-27T11:35:25.292Z,6.60
2019-01-27T11:38:33.878Z,6.60
2019-01-27T11:41:42.411Z,6.60
2019-01-27T11:44:50.845Z,6.50
2019-01-27T11:48:36.077Z,6.30
2019-01-27T11:51:44.643Z,6.20
2019-01-27T11:54:34.357Z,6.10
2019-01-27T11:58:19.620Z,6.00
2019-01-27T12:02:04.936Z,6.10
2019-01-27T12:04:54.792Z,6.00
2019-01-27T12:07:44.511Z,6.00
2019-01-27T12:10:52.924Z,5.60
2019-01-27T12:13:42.724Z,5.30
2019-01-27T12:16:32.476Z,5.30
2019-01-27T12:23:21.070Z,5.20
2019-01-27T12:26:10.651Z,5.20
2019-01-27T12:29:00.232Z,5.30
2019-01-27T12:31:43.953Z,6.50
2019-01-27T12:34:33.541Z,6.20
2019-01-27T12:37:23.558Z,6.40
2019-01-27T12:43:43.724Z,5.80
2019-01-27T13:01:15.788Z,7.00
2019-01-27T13:04:05.696Z,7.30
2019-01-27T13:07:30.507Z,7.80
2019-01-27T13:17:57.902Z,7.20
2019-01-27T13:21:42.369Z,7.00
2019-01-27T13:25:27.366Z,7.00
2019-01-27T13:28:17.165Z,7.30
2019-01-27T13:31:01.411Z,7.50
2019-01-27T13:33:51.299Z,8.20
2019-01-27T13:36:58.575Z,7.90
2019-01-27T13:40:25.077Z,8.20
2019-01-27T13:43:14.834Z,7.80
2019-01-27T13:46:04.778Z,6.90
2019-01-27T13:48:54.542Z,6.80
2019-01-27T13:51:44.309Z,6.80
2019-01-27T13:58:22.662Z,6.70
2019-01-27T14:01:12.351Z,6.70
2019-01-27T14:04:38.715Z,6.60
2019-01-27T14:07:45.314Z,6.70
2019-01-27T14:10:51.754Z,6.90
2019-01-27T14:13:41.495Z,7.00
2019-01-27T14:16:29.640Z,6.80
2019-01-27T14:19:17.677Z,6.80
2019-01-27T14:22:07.357Z,6.70
2019-01-27T14:25:15.367Z,6.70
2019-01-27T14:31:11.792Z,6.80
2019-01-27T14:33:53.750Z,6.70
2019-01-27T14:40:34.984Z,6.60
2019-01-27T14:43:24.805Z,6.50
2019-01-27T14:49:59.213Z,6.40
2019-01-27T14:53:44.390Z,6.30
2019-01-27T15:00:46.990Z,6.20
2019-01-27T15:03:36.807Z,6.20
2019-01-27T15:09:22.476Z,6.20
2019-01-27T15:24:26.233Z,5.80
2019-01-27T15:39:08.653Z,5.90
2019-01-27T16:03:16.914Z,5.60
2019-01-27T16:09:09.283Z,5.50
2019-01-27T16:11:59.051Z,5.40
2019-01-27T17:00:37.188Z,5.00
2019-01-27T17:06:14.051Z,5.00
2019-01-27T17:15:01.100Z,5.00
2019-01-27T17:17:51.640Z,5.00
2019-01-27T17:23:41.681Z,5.00
2019-01-27T17:26:31.927Z,5.10
2019-01-27T17:35:21.928Z,5.00
2019-01-27T17:41:14.882Z,4.90
2019-01-27T18:10:58.933Z,5.00
2019-01-27T18:13:54.568Z,4.90
2019-01-27T18:16:44.559Z,5.00
2019-01-27T18:22:30.956Z,4.90
2019-01-27T18:28:13.070Z,5.00
2019-01-27T18:30:55.652Z,4.90
2019-01-27T18:33:45.925Z,4.90
2019-01-27T18:48:20.360Z,5.00
2019-01-27T18:54:11.317Z,5.00
2019-01-27T18:57:05.907Z,4.90
2019-01-27T19:00:00.627Z,5.00
2019-01-27T19:02:59.271Z,5.10
2019-01-27T19:09:00.481Z,5.00
2019-01-27T19:14:58.897Z,5.00
2019-01-27T19:20:37.349Z,5.00
2019-01-27T19:23:45.923Z,4.90
2019-01-27T19:26:54.752Z,4.90
2019-01-27T19:33:15.995Z,4.90
2019-01-27T19:39:38.004Z,4.80
2019-01-27T19:42:48.875Z,4.80
2019-01-27T19:45:57.591Z,4.80
2019-01-27T19:51:49.692Z,4.60
2019-01-27T19:54:58.421Z,4.60
2019-01-27T19:58:07.148Z,4.70
2019-01-27T20:01:15.856Z,4.60
2019-01-27T20:04:23.499Z,4.40
2019-01-27T20:07:32.120Z,4.30
2019-01-27T20:11:14.588Z,4.30
2019-01-27T20:14:59.918Z,4.10
2019-01-27T20:39:27.020Z,4.00
2019-01-27T20:53:56.258Z,3.90
2019-01-27T20:57:40.093Z,3.90
2019-01-27T21:20:05.834Z,3.80
2019-01-27T21:26:41.400Z,3.70
2019-01-27T21:30:06.715Z,3.60
2019-01-27T21:32:49.347Z,3.60
2019-01-27T21:35:56.596Z,3.60
2019-01-27T21:42:32.941Z,3.40
2019-01-27T21:45:21.851Z,3.40
2019-01-27T21:55:44.546Z,3.20
2019-01-27T22:09:20.310Z,3.00
2019-01-27T22:16:08.741Z,3.00
2019-01-27T22:22:45.151Z,3.00
2019-01-27T22:25:34.784Z,3.00
2019-01-27T22:29:00.634Z,2.90
2019-01-27T22:32:19.175Z,2.80
2019-01-27T22:35:02.277Z,2.70
2019-01-27T22:42:35.815Z,2.60
2019-01-27T22:45:24.857Z,2.40
2019-01-27T22:49:10.858Z,2.30
2019-01-27T22:52:37.192Z,2.30
2019-01-27T22:59:24.818Z,2.10
2019-01-27T23:02:51.147Z,2.10
2019-01-27T23:05:40.928Z,2.00
2019-01-27T23:08:30.648Z,2.00
2019-01-27T23:11:20.667Z,1.90
2019-01-27T23:14:29.251Z,1.80
2019-01-27T23:17:19.508Z,1.80
2019-01-27T23:20:09.287Z,1.80
2019-01-27T23:22:59.490Z,1.80
2019-01-27T23:26:06.728Z,1.90
2019-01-27T23:29:50.361Z,1.80
2019-01-27T23:39:03.473Z,1.60
2019-01-27T23:42:09.760Z,1.60
2019-01-27T23:44:59.503Z,1.50
2019-01-27T23:47:49.292Z,1.50
2019-01-27T23:50:39.001Z,1.50
2019-01-27T23:53:28.635Z,1.50
2019-01-27T23:56:18.271Z,1.50
